sensor_id;sensor_type;location;lat;lon;timestamp;P1;durP1;ratioP1;P2;durP2;ratioP2
37077;SDS011;22989;55.998;37.212;2022-09-17T00:00:59;15.65;;;10.85;;
37077;SDS011;22989;55.998;37.212;2022-09-17T00:03:26;21.08;;;11.10;;
37077;SDS011;22989;55.998;37.212;2022-09-17T00:05:58;18.27;;;11.25;;
37077;SDS011;22989;55.998;37.212;2022-09-17T00:08:35;19.40;;;11.43;;
37077;SDS011;22989;55.998;37.212;2022-09-17T00:11:06;17.40;;;11.18;;
37077;SDS011;22989;55.998;37.212;2022-09-17T00:13:32;25.75;;;11.25;;
37077;SDS011;22989;55.998;37.212;2022-09-17T00:15:58;18.40;;;11.52;;
37077;SDS011;22989;55.998;37.212;2022-09-17T00:18:23;19.85;;;11.88;;
37077;SDS011;22989;55.998;37.212;2022-09-17T00:20:49;18.80;;;11.35;;
37077;SDS011;22989;55.998;37.212;2022-09-17T00:23:15;18.95;;;11.57;;
37077;SDS011;22989;55.998;37.212;2022-09-17T00:25:41;16.42;;;11.60;;
37077;SDS011;22989;55.998;37.212;2022-09-17T00:28:08;16.75;;;11.43;;
37077;SDS011;22989;55.998;37.212;2022-09-17T00:30:35;18.05;;;11.40;;
37077;SDS011;22989;55.998;37.212;2022-09-17T00:33:04;18.27;;;10.75;;
37077;SDS011;22989;55.998;37.212;2022-09-17T00:35:29;19.63;;;11.40;;
37077;SDS011;22989;55.998;37.212;2022-09-17T00:37:55;18.33;;;10.77;;
37077;SDS011;22989;55.998;37.212;2022-09-17T00:40:21;16.17;;;10.40;;
37077;SDS011;22989;55.998;37.212;2022-09-17T00:42:46;18.15;;;11.27;;
37077;SDS011;22989;55.998;37.212;2022-09-17T00:45:12;16.83;;;11.73;;
37077;SDS011;22989;55.998;37.212;2022-09-17T00:50:17;21.55;;;11.70;;
37077;SDS011;22989;55.998;37.212;2022-09-17T00:52:52;16.95;;;11.07;;
37077;SDS011;22989;55.998;37.212;2022-09-17T00:55:23;16.98;;;11.52;;
37077;SDS011;22989;55.998;37.212;2022-09-17T00:57:50;18.83;;;11.77;;
37077;SDS011;22989;55.998;37.212;2022-09-17T01:00:18;21.40;;;11.15;;
37077;SDS011;22989;55.998;37.212;2022-09-17T01:02:44;16.42;;;11.10;;
37077;SDS011;22989;55.998;37.212;2022-09-17T01:05:10;14.50;;;10.32;;
37077;SDS011;22989;55.998;37.212;2022-09-17T01:31:36;14.05;;;6.97;;
37077;SDS011;22989;55.998;37.212;2022-09-17T01:34:29;16.67;;;7.18;;
37077;SDS011;22989;55.998;37.212;2022-09-17T01:37:10;12.05;;;6.93;;
37077;SDS011;22989;55.998;37.212;2022-09-17T01:42:17;9.63;;;6.22;;
37077;SDS011;22989;55.998;37.212;2022-09-17T01:44:56;10.57;;;6.80;;
37077;SDS011;22989;55.998;37.212;2022-09-17T01:50:15;8.15;;;5.55;;
37077;SDS011;22989;55.998;37.212;2022-09-17T01:52:46;6.78;;;5.68;;
37077;SDS011;22989;55.998;37.212;2022-09-17T01:55:16;7.78;;;5.82;;
37077;SDS011;22989;55.998;37.212;2022-09-17T02:00:46;9.75;;;5.50;;
37077;SDS011;22989;55.998;37.212;2022-09-17T02:03:17;7.80;;;5.60;;
37077;SDS011;22989;55.998;37.212;2022-09-17T02:06:04;9.55;;;5.50;;
37077;SDS011;22989;55.998;37.212;2022-09-17T02:08:36;9.95;;;5.28;;
37077;SDS011;22989;55.998;37.212;2022-09-17T02:11:05;6.03;;;4.88;;
37077;SDS011;22989;55.998;37.212;2022-09-17T02:13:44;5.65;;;5.05;;
37077;SDS011;22989;55.998;37.212;2022-09-17T02:16:16;8.03;;;5.20;;
37077;SDS011;22989;55.998;37.212;2022-09-17T02:18:46;7.80;;;5.05;;
37077;SDS011;22989;55.998;37.212;2022-09-17T02:24:34;9.55;;;5.63;;
37077;SDS011;22989;55.998;37.212;2022-09-17T02:26:57;7.22;;;5.32;;
37077;SDS011;22989;55.998;37.212;2022-09-17T02:29:25;10.95;;;5.00;;
37077;SDS011;22989;55.998;37.212;2022-09-17T02:31:59;9.00;;;4.95;;
37077;SDS011;22989;55.998;37.212;2022-09-17T02:34:26;9.00;;;4.85;;
37077;SDS011;22989;55.998;37.212;2022-09-17T02:36:53;5.88;;;4.78;;
37077;SDS011;22989;55.998;37.212;2022-09-17T02:39:19;10.60;;;5.40;;
37077;SDS011;22989;55.998;37.212;2022-09-17T02:50:23;9.02;;;5.32;;
37077;SDS011;22989;55.998;37.212;2022-09-17T02:58:20;9.00;;;5.57;;
37077;SDS011;22989;55.998;37.212;2022-09-17T03:00:52;12.02;;;6.15;;
37077;SDS011;22989;55.998;37.212;2022-09-17T03:03:22;11.90;;;5.75;;
37077;SDS011;22989;55.998;37.212;2022-09-17T03:05:51;7.70;;;6.00;;
37077;SDS011;22989;55.998;37.212;2022-09-17T03:08:18;7.72;;;5.22;;
37077;SDS011;22989;55.998;37.212;2022-09-17T03:10:57;8.70;;;5.47;;
37077;SDS011;22989;55.998;37.212;2022-09-17T03:13:23;9.75;;;5.38;;
37077;SDS011;22989;55.998;37.212;2022-09-17T03:15:48;8.20;;;5.45;;
37077;SDS011;22989;55.998;37.212;2022-09-17T03:18:14;8.05;;;5.57;;
37077;SDS011;22989;55.998;37.212;2022-09-17T03:20:40;7.90;;;5.78;;
37077;SDS011;22989;55.998;37.212;2022-09-17T03:23:05;6.72;;;5.35;;
37077;SDS011;22989;55.998;37.212;2022-09-17T03:25:31;7.05;;;5.45;;
37077;SDS011;22989;55.998;37.212;2022-09-17T03:27:56;7.88;;;5.25;;
37077;SDS011;22989;55.998;37.212;2022-09-17T03:30:22;8.48;;;5.38;;
37077;SDS011;22989;55.998;37.212;2022-09-17T03:32:48;7.45;;;5.65;;
37077;SDS011;22989;55.998;37.212;2022-09-17T03:35:13;9.20;;;5.78;;
37077;SDS011;22989;55.998;37.212;2022-09-17T03:37:39;11.80;;;6.15;;
37077;SDS011;22989;55.998;37.212;2022-09-17T03:40:04;8.95;;;5.43;;
37077;SDS011;22989;55.998;37.212;2022-09-17T03:42:30;6.68;;;5.60;;
37077;SDS011;22989;55.998;37.212;2022-09-17T03:44:56;9.93;;;5.18;;
37077;SDS011;22989;55.998;37.212;2022-09-17T03:47:22;7.78;;;4.53;;
37077;SDS011;22989;55.998;37.212;2022-09-17T03:49:47;8.60;;;4.20;;
37077;SDS011;22989;55.998;37.212;2022-09-17T03:52:13;7.60;;;4.20;;
37077;SDS011;22989;55.998;37.212;2022-09-17T03:54:38;8.77;;;5.25;;
37077;SDS011;22989;55.998;37.212;2022-09-17T03:57:04;6.50;;;3.92;;
37077;SDS011;22989;55.998;37.212;2022-09-17T03:59:30;10.05;;;3.75;;
37077;SDS011;22989;55.998;37.212;2022-09-17T04:01:56;4.15;;;3.05;;
37077;SDS011;22989;55.998;37.212;2022-09-17T04:04:21;5.00;;;2.92;;
37077;SDS011;22989;55.998;37.212;2022-09-17T04:06:47;3.22;;;2.60;;
37077;SDS011;22989;55.998;37.212;2022-09-17T04:09:13;3.75;;;3.08;;
37077;SDS011;22989;55.998;37.212;2022-09-17T04:11:39;3.65;;;2.70;;
37077;SDS011;22989;55.998;37.212;2022-09-17T04:14:04;4.47;;;2.40;;
37077;SDS011;22989;55.998;37.212;2022-09-17T04:16:30;3.83;;;2.25;;
37077;SDS011;22989;55.998;37.212;2022-09-17T04:18:55;4.38;;;2.10;;
37077;SDS011;22989;55.998;37.212;2022-09-17T04:21:21;6.65;;;2.30;;
37077;SDS011;22989;55.998;37.212;2022-09-17T04:23:47;7.70;;;2.20;;
37077;SDS011;22989;55.998;37.212;2022-09-17T04:26:12;2.92;;;2.20;;
37077;SDS011;22989;55.998;37.212;2022-09-17T04:28:38;3.50;;;2.40;;
37077;SDS011;22989;55.998;37.212;2022-09-17T04:31:04;2.05;;;1.77;;
37077;SDS011;22989;55.998;37.212;2022-09-17T04:33:29;2.45;;;1.88;;
37077;SDS011;22989;55.998;37.212;2022-09-17T04:35:55;7.78;;;2.10;;
37077;SDS011;22989;55.998;37.212;2022-09-17T04:38:20;5.18;;;2.08;;
37077;SDS011;22989;55.998;37.212;2022-09-17T04:40:46;2.90;;;2.00;;
37077;SDS011;22989;55.998;37.212;2022-09-17T04:43:12;4.00;;;2.28;;
37077;SDS011;22989;55.998;37.212;2022-09-17T04:45:38;4.75;;;2.08;;
37077;SDS011;22989;55.998;37.212;2022-09-17T04:48:04;5.30;;;1.98;;
37077;SDS011;22989;55.998;37.212;2022-09-17T04:50:29;4.03;;;2.20;;
37077;SDS011;22989;55.998;37.212;2022-09-17T04:52:56;3.33;;;1.90;;
37077;SDS011;22989;55.998;37.212;2022-09-17T04:55:22;5.30;;;1.90;;
37077;SDS011;22989;55.998;37.212;2022-09-17T04:57:48;2.13;;;1.80;;
37077;SDS011;22989;55.998;37.212;2022-09-17T05:00:16;2.72;;;2.08;;
37077;SDS011;22989;55.998;37.212;2022-09-17T05:02:43;3.38;;;2.05;;
37077;SDS011;22989;55.998;37.212;2022-09-17T05:05:10;3.65;;;2.47;;
37077;SDS011;22989;55.998;37.212;2022-09-17T05:07:39;4.38;;;1.90;;
37077;SDS011;22989;55.998;37.212;2022-09-17T05:10:05;7.07;;;2.20;;
37077;SDS011;22989;55.998;37.212;2022-09-17T05:12:31;3.67;;;2.03;;
37077;SDS011;22989;55.998;37.212;2022-09-17T05:14:57;4.88;;;2.45;;
37077;SDS011;22989;55.998;37.212;2022-09-17T05:17:22;6.18;;;2.10;;
37077;SDS011;22989;55.998;37.212;2022-09-17T05:19:48;3.45;;;2.00;;
37077;SDS011;22989;55.998;37.212;2022-09-17T05:22:13;5.55;;;1.90;;
37077;SDS011;22989;55.998;37.212;2022-09-17T05:24:39;3.08;;;1.88;;
37077;SDS011;22989;55.998;37.212;2022-09-17T05:27:05;3.22;;;1.98;;
37077;SDS011;22989;55.998;37.212;2022-09-17T05:29:31;3.05;;;1.63;;
37077;SDS011;22989;55.998;37.212;2022-09-17T05:31:57;3.25;;;1.92;;
37077;SDS011;22989;55.998;37.212;2022-09-17T05:34:22;4.15;;;1.83;;
37077;SDS011;22989;55.998;37.212;2022-09-17T05:36:48;3.05;;;1.88;;
37077;SDS011;22989;55.998;37.212;2022-09-17T05:39:14;2.25;;;1.60;;
37077;SDS011;22989;55.998;37.212;2022-09-17T05:41:39;5.22;;;1.70;;
37077;SDS011;22989;55.998;37.212;2022-09-17T05:44:05;3.50;;;1.73;;
37077;SDS011;22989;55.998;37.212;2022-09-17T05:46:31;3.67;;;2.10;;
37077;SDS011;22989;55.998;37.212;2022-09-17T05:48:56;4.43;;;2.20;;
37077;SDS011;22989;55.998;37.212;2022-09-17T05:51:22;3.25;;;1.83;;
37077;SDS011;22989;55.998;37.212;2022-09-17T05:53:48;5.88;;;2.05;;
37077;SDS011;22989;55.998;37.212;2022-09-17T05:56:14;4.65;;;1.90;;
37077;SDS011;22989;55.998;37.212;2022-09-17T05:58:39;4.82;;;2.00;;
37077;SDS011;22989;55.998;37.212;2022-09-17T06:01:05;4.60;;;1.90;;
37077;SDS011;22989;55.998;37.212;2022-09-17T06:03:31;5.97;;;2.10;;
37077;SDS011;22989;55.998;37.212;2022-09-17T06:05:57;8.38;;;2.00;;
37077;SDS011;22989;55.998;37.212;2022-09-17T06:08:26;4.93;;;2.47;;
37077;SDS011;22989;55.998;37.212;2022-09-17T06:10:52;4.18;;;2.00;;
37077;SDS011;22989;55.998;37.212;2022-09-17T06:13:19;4.28;;;2.00;;
37077;SDS011;22989;55.998;37.212;2022-09-17T06:15:49;4.00;;;2.10;;
37077;SDS011;22989;55.998;37.212;2022-09-17T06:18:15;5.47;;;2.40;;
37077;SDS011;22989;55.998;37.212;2022-09-17T06:20:41;4.35;;;2.30;;
37077;SDS011;22989;55.998;37.212;2022-09-17T06:23:07;3.03;;;2.30;;
37077;SDS011;22989;55.998;37.212;2022-09-17T06:25:32;3.30;;;2.13;;
37077;SDS011;22989;55.998;37.212;2022-09-17T06:28:00;4.63;;;2.10;;
37077;SDS011;22989;55.998;37.212;2022-09-17T06:30:27;7.18;;;2.10;;
37077;SDS011;22989;55.998;37.212;2022-09-17T06:32:53;4.78;;;2.75;;
37077;SDS011;22989;55.998;37.212;2022-09-17T06:35:18;10.38;;;2.35;;
37077;SDS011;22989;55.998;37.212;2022-09-17T06:37:44;4.68;;;2.80;;
37077;SDS011;22989;55.998;37.212;2022-09-17T06:40:09;4.40;;;2.88;;
37077;SDS011;22989;55.998;37.212;2022-09-17T06:42:35;6.28;;;3.20;;
37077;SDS011;22989;55.998;37.212;2022-09-17T06:45:01;4.20;;;2.72;;
37077;SDS011;22989;55.998;37.212;2022-09-17T06:47:26;4.40;;;2.50;;
37077;SDS011;22989;55.998;37.212;2022-09-17T06:49:52;4.97;;;2.35;;
37077;SDS011;22989;55.998;37.212;2022-09-17T06:52:21;6.00;;;2.33;;
37077;SDS011;22989;55.998;37.212;2022-09-17T06:54:46;4.85;;;2.45;;
37077;SDS011;22989;55.998;37.212;2022-09-17T06:57:12;6.90;;;2.40;;
37077;SDS011;22989;55.998;37.212;2022-09-17T06:59:38;5.07;;;2.40;;
37077;SDS011;22989;55.998;37.212;2022-09-17T07:02:03;6.25;;;2.50;;
37077;SDS011;22989;55.998;37.212;2022-09-17T07:04:29;4.65;;;2.42;;
37077;SDS011;22989;55.998;37.212;2022-09-17T07:06:55;5.43;;;2.90;;
37077;SDS011;22989;55.998;37.212;2022-09-17T07:09:20;9.32;;;2.55;;
37077;SDS011;22989;55.998;37.212;2022-09-17T07:11:46;3.55;;;2.72;;
37077;SDS011;22989;55.998;37.212;2022-09-17T07:14:11;7.03;;;2.88;;
37077;SDS011;22989;55.998;37.212;2022-09-17T07:16:37;5.07;;;2.33;;
37077;SDS011;22989;55.998;37.212;2022-09-17T07:19:03;5.55;;;2.20;;
37077;SDS011;22989;55.998;37.212;2022-09-17T07:21:29;9.43;;;2.17;;
37077;SDS011;22989;55.998;37.212;2022-09-17T07:23:55;5.45;;;2.10;;
37077;SDS011;22989;55.998;37.212;2022-09-17T07:26:21;5.80;;;2.45;;
37077;SDS011;22989;55.998;37.212;2022-09-17T07:28:46;6.03;;;2.30;;
37077;SDS011;22989;55.998;37.212;2022-09-17T07:31:12;4.47;;;2.30;;
37077;SDS011;22989;55.998;37.212;2022-09-17T07:33:40;13.23;;;2.40;;
37077;SDS011;22989;55.998;37.212;2022-09-17T07:36:13;7.20;;;2.55;;
37077;SDS011;22989;55.998;37.212;2022-09-17T07:38:42;6.35;;;2.70;;
37077;SDS011;22989;55.998;37.212;2022-09-17T07:41:12;4.80;;;2.17;;
37077;SDS011;22989;55.998;37.212;2022-09-17T07:43:40;5.33;;;2.10;;
37077;SDS011;22989;55.998;37.212;2022-09-17T07:46:07;3.50;;;1.85;;
37077;SDS011;22989;55.998;37.212;2022-09-17T07:48:37;5.20;;;2.30;;
37077;SDS011;22989;55.998;37.212;2022-09-17T07:51:03;7.38;;;2.28;;
37077;SDS011;22989;55.998;37.212;2022-09-17T07:53:29;8.50;;;2.03;;
37077;SDS011;22989;55.998;37.212;2022-09-17T07:55:55;6.28;;;2.40;;
37077;SDS011;22989;55.998;37.212;2022-09-17T07:58:26;5.55;;;2.30;;
37077;SDS011;22989;55.998;37.212;2022-09-17T08:01:01;5.78;;;2.17;;
37077;SDS011;22989;55.998;37.212;2022-09-17T08:03:28;6.20;;;2.30;;
37077;SDS011;22989;55.998;37.212;2022-09-17T08:05:53;11.52;;;2.75;;
37077;SDS011;22989;55.998;37.212;2022-09-17T08:08:29;7.55;;;2.20;;
37077;SDS011;22989;55.998;37.212;2022-09-17T08:11:00;7.35;;;2.00;;
37077;SDS011;22989;55.998;37.212;2022-09-17T08:13:27;6.15;;;2.15;;
37077;SDS011;22989;55.998;37.212;2022-09-17T08:15:56;5.88;;;2.38;;
37077;SDS011;22989;55.998;37.212;2022-09-17T08:18:26;5.78;;;2.13;;
37077;SDS011;22989;55.998;37.212;2022-09-17T08:20:55;4.78;;;2.28;;
37077;SDS011;22989;55.998;37.212;2022-09-17T08:23:21;3.92;;;2.05;;
37077;SDS011;22989;55.998;37.212;2022-09-17T08:25:51;4.13;;;1.95;;
37077;SDS011;22989;55.998;37.212;2022-09-17T08:28:20;9.77;;;2.17;;
37077;SDS011;22989;55.998;37.212;2022-09-17T08:30:47;4.32;;;2.17;;
37077;SDS011;22989;55.998;37.212;2022-09-17T08:33:13;4.53;;;2.10;;
37077;SDS011;22989;55.998;37.212;2022-09-17T08:35:39;12.57;;;2.20;;
37077;SDS011;22989;55.998;37.212;2022-09-17T08:38:05;4.43;;;2.05;;
37077;SDS011;22989;55.998;37.212;2022-09-17T08:40:32;6.25;;;2.15;;
37077;SDS011;22989;55.998;37.212;2022-09-17T08:43:07;4.47;;;2.00;;
37077;SDS011;22989;55.998;37.212;2022-09-17T08:45:40;6.35;;;2.17;;
37077;SDS011;22989;55.998;37.212;2022-09-17T08:48:07;12.05;;;2.10;;
37077;SDS011;22989;55.998;37.212;2022-09-17T08:50:38;3.35;;;1.75;;
37077;SDS011;22989;55.998;37.212;2022-09-17T08:56:12;7.63;;;2.45;;
37077;SDS011;22989;55.998;37.212;2022-09-17T09:04:25;6.25;;;2.10;;
37077;SDS011;22989;55.998;37.212;2022-09-17T09:07:16;5.25;;;2.30;;
37077;SDS011;22989;55.998;37.212;2022-09-17T09:09:46;2.95;;;1.70;;
37077;SDS011;22989;55.998;37.212;2022-09-17T09:12:33;9.73;;;2.25;;
37077;SDS011;22989;55.998;37.212;2022-09-17T09:15:05;7.63;;;2.40;;
37077;SDS011;22989;55.998;37.212;2022-09-17T09:17:48;3.90;;;2.00;;
37077;SDS011;22989;55.998;37.212;2022-09-17T09:20:16;6.20;;;1.70;;
37077;SDS011;22989;55.998;37.212;2022-09-17T09:22:47;6.43;;;1.42;;
37077;SDS011;22989;55.998;37.212;2022-09-17T09:28:01;5.90;;;1.40;;
37077;SDS011;22989;55.998;37.212;2022-09-17T09:33:51;5.63;;;1.50;;
37077;SDS011;22989;55.998;37.212;2022-09-17T09:36:21;4.20;;;1.77;;
37077;SDS011;22989;55.998;37.212;2022-09-17T09:39:06;3.93;;;1.83;;
37077;SDS011;22989;55.998;37.212;2022-09-17T09:42:13;6.47;;;1.70;;
37077;SDS011;22989;55.998;37.212;2022-09-17T09:44:34;6.68;;;1.58;;
37077;SDS011;22989;55.998;37.212;2022-09-17T09:47:21;5.25;;;1.60;;
37077;SDS011;22989;55.998;37.212;2022-09-17T09:50:28;4.55;;;1.50;;
37077;SDS011;22989;55.998;37.212;2022-09-17T09:58:43;3.83;;;1.58;;
37077;SDS011;22989;55.998;37.212;2022-09-17T10:01:12;5.70;;;1.63;;
37077;SDS011;22989;55.998;37.212;2022-09-17T10:03:40;7.40;;;1.85;;
37077;SDS011;22989;55.998;37.212;2022-09-17T10:06:07;3.58;;;1.50;;
37077;SDS011;22989;55.998;37.212;2022-09-17T10:08:35;6.65;;;1.52;;
37077;SDS011;22989;55.998;37.212;2022-09-17T10:13:35;2.60;;;1.45;;
37077;SDS011;22989;55.998;37.212;2022-09-17T10:16:44;5.20;;;1.27;;
37077;SDS011;22989;55.998;37.212;2022-09-17T10:19:17;3.15;;;1.02;;
37077;SDS011;22989;55.998;37.212;2022-09-17T10:21:42;6.63;;;1.05;;
37077;SDS011;22989;55.998;37.212;2022-09-17T10:26:51;3.67;;;0.80;;
37077;SDS011;22989;55.998;37.212;2022-09-17T10:29:32;3.05;;;0.93;;
37077;SDS011;22989;55.998;37.212;2022-09-17T10:31:58;2.33;;;1.10;;
37077;SDS011;22989;55.998;37.212;2022-09-17T10:36:51;6.20;;;1.00;;
37077;SDS011;22989;55.998;37.212;2022-09-17T10:44:23;3.33;;;1.17;;
37077;SDS011;22989;55.998;37.212;2022-09-17T10:46:54;1.57;;;0.93;;
37077;SDS011;22989;55.998;37.212;2022-09-17T10:52:09;2.78;;;1.00;;
37077;SDS011;22989;55.998;37.212;2022-09-17T10:54:53;4.45;;;1.10;;
37077;SDS011;22989;55.998;37.212;2022-09-17T10:57:38;3.70;;;1.00;;
37077;SDS011;22989;55.998;37.212;2022-09-17T11:00:14;3.08;;;0.98;;
37077;SDS011;22989;55.998;37.212;2022-09-17T11:05:25;3.28;;;0.93;;
37077;SDS011;22989;55.998;37.212;2022-09-17T11:10:43;2.30;;;1.10;;
37077;SDS011;22989;55.998;37.212;2022-09-17T11:13:40;6.25;;;1.05;;
37077;SDS011;22989;55.998;37.212;2022-09-17T11:16:34;1.60;;;1.20;;
37077;SDS011;22989;55.998;37.212;2022-09-17T11:19:34;1.67;;;1.02;;
37077;SDS011;22989;55.998;37.212;2022-09-17T11:30:19;7.75;;;1.15;;
37077;SDS011;22989;55.998;37.212;2022-09-17T11:32:54;9.02;;;1.00;;
37077;SDS011;22989;55.998;37.212;2022-09-17T11:35:36;4.57;;;0.90;;
37077;SDS011;22989;55.998;37.212;2022-09-17T11:40:43;1.75;;;0.90;;
37077;SDS011;22989;55.998;37.212;2022-09-17T11:45:46;4.60;;;1.08;;
37077;SDS011;22989;55.998;37.212;2022-09-17T11:48:23;4.10;;;0.90;;
37077;SDS011;22989;55.998;37.212;2022-09-17T11:51:18;3.67;;;1.00;;
37077;SDS011;22989;55.998;37.212;2022-09-17T11:53:52;5.10;;;1.00;;
37077;SDS011;22989;55.998;37.212;2022-09-17T11:56:37;4.72;;;1.00;;
37077;SDS011;22989;55.998;37.212;2022-09-17T12:01:51;3.50;;;1.05;;
37077;SDS011;22989;55.998;37.212;2022-09-17T12:04:42;4.97;;;1.30;;
37077;SDS011;22989;55.998;37.212;2022-09-17T12:09:35;4.80;;;1.27;;
37077;SDS011;22989;55.998;37.212;2022-09-17T12:12:07;3.47;;;1.40;;
37077;SDS011;22989;55.998;37.212;2022-09-17T12:14:48;6.20;;;1.25;;
37077;SDS011;22989;55.998;37.212;2022-09-17T12:17:28;2.33;;;1.00;;
37077;SDS011;22989;55.998;37.212;2022-09-17T12:20:12;5.35;;;1.38;;
37077;SDS011;22989;55.998;37.212;2022-09-17T12:22:56;3.75;;;1.23;;
37077;SDS011;22989;55.998;37.212;2022-09-17T12:25:25;7.47;;;1.20;;
37077;SDS011;22989;55.998;37.212;2022-09-17T12:28:01;1.70;;;1.00;;
37077;SDS011;22989;55.998;37.212;2022-09-17T12:30:37;5.22;;;1.30;;
37077;SDS011;22989;55.998;37.212;2022-09-17T12:33:14;2.47;;;1.25;;
37077;SDS011;22989;55.998;37.212;2022-09-17T12:44:30;7.38;;;1.20;;
37077;SDS011;22989;55.998;37.212;2022-09-17T13:00:47;7.03;;;1.70;;
37077;SDS011;22989;55.998;37.212;2022-09-17T13:03:21;5.93;;;1.40;;
37077;SDS011;22989;55.998;37.212;2022-09-17T13:22:28;5.85;;;1.75;;
37077;SDS011;22989;55.998;37.212;2022-09-17T13:25:04;4.20;;;1.70;;
37077;SDS011;22989;55.998;37.212;2022-09-17T13:27:33;3.42;;;1.40;;
37077;SDS011;22989;55.998;37.212;2022-09-17T13:30:02;3.53;;;1.98;;
37077;SDS011;22989;55.998;37.212;2022-09-17T13:37:42;5.93;;;1.52;;
37077;SDS011;22989;55.998;37.212;2022-09-17T13:40:27;4.78;;;1.77;;
37077;SDS011;22989;55.998;37.212;2022-09-17T13:43:06;2.72;;;1.48;;
37077;SDS011;22989;55.998;37.212;2022-09-17T13:46:20;6.22;;;1.55;;
37077;SDS011;22989;55.998;37.212;2022-09-17T13:48:24;3.10;;;1.65;;
37077;SDS011;22989;55.998;37.212;2022-09-17T13:50:55;6.13;;;1.40;;
37077;SDS011;22989;55.998;37.212;2022-09-17T13:53:22;2.58;;;1.63;;
37077;SDS011;22989;55.998;37.212;2022-09-17T14:00:56;2.92;;;1.38;;
37077;SDS011;22989;55.998;37.212;2022-09-17T14:05:56;3.88;;;1.70;;
37077;SDS011;22989;55.998;37.212;2022-09-17T14:21:41;4.10;;;2.10;;
37077;SDS011;22989;55.998;37.212;2022-09-17T14:24:19;3.92;;;1.80;;
37077;SDS011;22989;55.998;37.212;2022-09-17T14:29:48;8.60;;;2.17;;
37077;SDS011;22989;55.998;37.212;2022-09-17T14:32:16;7.25;;;2.05;;
37077;SDS011;22989;55.998;37.212;2022-09-17T14:34:46;6.93;;;2.22;;
37077;SDS011;22989;55.998;37.212;2022-09-17T14:37:15;6.65;;;2.10;;
37077;SDS011;22989;55.998;37.212;2022-09-17T14:39:43;4.65;;;1.90;;
37077;SDS011;22989;55.998;37.212;2022-09-17T14:42:14;6.20;;;2.05;;
37077;SDS011;22989;55.998;37.212;2022-09-17T14:44:50;4.50;;;1.95;;
37077;SDS011;22989;55.998;37.212;2022-09-17T14:47:22;4.25;;;1.95;;
37077;SDS011;22989;55.998;37.212;2022-09-17T14:49:48;4.32;;;1.80;;
37077;SDS011;22989;55.998;37.212;2022-09-17T14:52:22;4.75;;;1.88;;
37077;SDS011;22989;55.998;37.212;2022-09-17T14:54:49;5.07;;;1.77;;
37077;SDS011;22989;55.998;37.212;2022-09-17T14:57:53;7.00;;;1.70;;
37077;SDS011;22989;55.998;37.212;2022-09-17T15:00:22;3.05;;;1.63;;
37077;SDS011;22989;55.998;37.212;2022-09-17T15:02:50;6.05;;;1.73;;
37077;SDS011;22989;55.998;37.212;2022-09-17T15:08:03;4.67;;;2.00;;
37077;SDS011;22989;55.998;37.212;2022-09-17T15:10:31;3.53;;;1.90;;
37077;SDS011;22989;55.998;37.212;2022-09-17T15:13:00;9.25;;;2.35;;
37077;SDS011;22989;55.998;37.212;2022-09-17T15:15:25;5.63;;;2.55;;
37077;SDS011;22989;55.998;37.212;2022-09-17T15:17:52;4.45;;;1.83;;
37077;SDS011;22989;55.998;37.212;2022-09-17T15:20:19;5.72;;;1.85;;
37077;SDS011;22989;55.998;37.212;2022-09-17T15:22:51;4.55;;;2.00;;
37077;SDS011;22989;55.998;37.212;2022-09-17T15:25:22;2.50;;;1.90;;
37077;SDS011;22989;55.998;37.212;2022-09-17T15:30:20;7.50;;;2.60;;
37077;SDS011;22989;55.998;37.212;2022-09-17T15:35:24;6.38;;;2.13;;
37077;SDS011;22989;55.998;37.212;2022-09-17T15:37:55;7.30;;;2.30;;
37077;SDS011;22989;55.998;37.212;2022-09-17T15:40:38;4.30;;;2.13;;
37077;SDS011;22989;55.998;37.212;2022-09-17T15:45:52;7.53;;;4.55;;
37077;SDS011;22989;55.998;37.212;2022-09-17T15:48:37;5.03;;;3.05;;
37077;SDS011;22989;55.998;37.212;2022-09-17T15:51:14;4.20;;;2.60;;
37077;SDS011;22989;55.998;37.212;2022-09-17T15:54:00;6.03;;;2.30;;
37077;SDS011;22989;55.998;37.212;2022-09-17T15:56:38;7.70;;;2.90;;
37077;SDS011;22989;55.998;37.212;2022-09-17T15:59:24;5.90;;;2.80;;
37077;SDS011;22989;55.998;37.212;2022-09-17T16:01:53;4.57;;;2.65;;
37077;SDS011;22989;55.998;37.212;2022-09-17T16:04:25;12.27;;;2.67;;
37077;SDS011;22989;55.998;37.212;2022-09-17T16:12:22;8.57;;;3.20;;
37077;SDS011;22989;55.998;37.212;2022-09-17T16:14:53;5.90;;;3.00;;
37077;SDS011;22989;55.998;37.212;2022-09-17T16:17:21;8.27;;;3.05;;
37077;SDS011;22989;55.998;37.212;2022-09-17T16:19:58;5.95;;;3.10;;
37077;SDS011;22989;55.998;37.212;2022-09-17T16:22:25;7.32;;;3.88;;
37077;SDS011;22989;55.998;37.212;2022-09-17T16:24:52;6.50;;;3.40;;
37077;SDS011;22989;55.998;37.212;2022-09-17T16:27:20;7.45;;;3.20;;
37077;SDS011;22989;55.998;37.212;2022-09-17T16:29:49;9.23;;;3.28;;
37077;SDS011;22989;55.998;37.212;2022-09-17T16:32:16;12.38;;;4.22;;
37077;SDS011;22989;55.998;37.212;2022-09-17T16:34:42;5.25;;;3.45;;
37077;SDS011;22989;55.998;37.212;2022-09-17T16:37:08;7.70;;;3.63;;
37077;SDS011;22989;55.998;37.212;2022-09-17T16:39:35;6.93;;;3.67;;
37077;SDS011;22989;55.998;37.212;2022-09-17T16:42:01;5.10;;;3.55;;
37077;SDS011;22989;55.998;37.212;2022-09-17T16:44:27;8.00;;;4.47;;
37077;SDS011;22989;55.998;37.212;2022-09-17T16:46:52;8.52;;;4.82;;
37077;SDS011;22989;55.998;37.212;2022-09-17T16:49:18;14.07;;;6.10;;
37077;SDS011;22989;55.998;37.212;2022-09-17T16:51:43;26.27;;;9.95;;
37077;SDS011;22989;55.998;37.212;2022-09-17T16:54:09;20.70;;;10.10;;
37077;SDS011;22989;55.998;37.212;2022-09-17T16:56:35;17.13;;;9.02;;
37077;SDS011;22989;55.998;37.212;2022-09-17T16:59:00;14.85;;;8.20;;
37077;SDS011;22989;55.998;37.212;2022-09-17T17:01:26;13.73;;;7.18;;
37077;SDS011;22989;55.998;37.212;2022-09-17T17:03:51;15.18;;;6.80;;
37077;SDS011;22989;55.998;37.212;2022-09-17T17:06:19;14.55;;;7.10;;
37077;SDS011;22989;55.998;37.212;2022-09-17T17:08:46;12.45;;;7.07;;
37077;SDS011;22989;55.998;37.212;2022-09-17T17:11:12;16.10;;;8.05;;
37077;SDS011;22989;55.998;37.212;2022-09-17T17:13:38;12.48;;;7.32;;
37077;SDS011;22989;55.998;37.212;2022-09-17T17:16:06;13.43;;;7.50;;
37077;SDS011;22989;55.998;37.212;2022-09-17T17:18:32;13.73;;;7.53;;
37077;SDS011;22989;55.998;37.212;2022-09-17T17:21:08;14.32;;;7.50;;
37077;SDS011;22989;55.998;37.212;2022-09-17T17:23:35;14.82;;;7.30;;
37077;SDS011;22989;55.998;37.212;2022-09-17T17:26:00;18.60;;;7.60;;
37077;SDS011;22989;55.998;37.212;2022-09-17T17:28:31;20.17;;;11.52;;
37077;SDS011;22989;55.998;37.212;2022-09-17T17:30:59;16.25;;;7.63;;
37077;SDS011;22989;55.998;37.212;2022-09-17T17:33:25;17.70;;;8.00;;
37077;SDS011;22989;55.998;37.212;2022-09-17T17:35:50;13.95;;;7.13;;
37077;SDS011;22989;55.998;37.212;2022-09-17T17:38:16;11.05;;;7.05;;
37077;SDS011;22989;55.998;37.212;2022-09-17T17:40:42;12.15;;;7.03;;
37077;SDS011;22989;55.998;37.212;2022-09-17T17:43:09;16.25;;;6.65;;
37077;SDS011;22989;55.998;37.212;2022-09-17T17:45:37;15.95;;;6.93;;
37077;SDS011;22989;55.998;37.212;2022-09-17T17:48:03;9.50;;;6.20;;
37077;SDS011;22989;55.998;37.212;2022-09-17T17:50:28;10.65;;;6.35;;
37077;SDS011;22989;55.998;37.212;2022-09-17T17:52:54;13.50;;;6.38;;
37077;SDS011;22989;55.998;37.212;2022-09-17T17:55:20;11.00;;;5.93;;
37077;SDS011;22989;55.998;37.212;2022-09-17T17:57:46;25.33;;;5.95;;
37077;SDS011;22989;55.998;37.212;2022-09-17T18:00:12;11.55;;;5.30;;
37077;SDS011;22989;55.998;37.212;2022-09-17T18:02:40;10.93;;;5.50;;